sensor_id;sensor_type;location;lat;lon;timestamp;temperature;humidity
612;DHT22;293;53.888;11.464;2022-07-23T00:01:45;17.80;94.40
612;DHT22;293;53.888;11.464;2022-07-23T00:04:13;17.80;94.30
612;DHT22;293;53.888;11.464;2022-07-23T00:06:40;17.80;94.40
612;DHT22;293;53.888;11.464;2022-07-23T00:09:06;17.70;94.40
612;DHT22;293;53.888;11.464;2022-07-23T00:11:33;17.80;94.80
612;DHT22;293;53.888;11.464;2022-07-23T00:14:00;17.80;94.70
612;DHT22;293;53.888;11.464;2022-07-23T00:16:28;17.80;94.80
612;DHT22;293;53.888;11.464;2022-07-23T00:18:55;17.80;94.80
612;DHT22;293;53.888;11.464;2022-07-23T00:21:22;17.80;94.70
612;DHT22;293;53.888;11.464;2022-07-23T00:23:49;17.80;94.60
612;DHT22;293;53.888;11.464;2022-07-23T00:26:16;17.80;94.50
612;DHT22;293;53.888;11.464;2022-07-23T00:28:42;17.70;94.90
612;DHT22;293;53.888;11.464;2022-07-23T00:31:09;17.70;95.00
612;DHT22;293;53.888;11.464;2022-07-23T00:33:37;17.70;95.20
612;DHT22;293;53.888;11.464;2022-07-23T00:36:05;17.70;95.10
612;DHT22;293;53.888;11.464;2022-07-23T00:38:32;17.80;95.00
612;DHT22;293;53.888;11.464;2022-07-23T00:40:58;17.70;95.00
612;DHT22;293;53.888;11.464;2022-07-23T00:43:25;17.70;95.20
612;DHT22;293;53.888;11.464;2022-07-23T00:45:52;17.70;95.40
612;DHT22;293;53.888;11.464;2022-07-23T00:48:19;17.70;95.20
612;DHT22;293;53.888;11.464;2022-07-23T00:50:47;17.60;95.50
612;DHT22;293;53.888;11.464;2022-07-23T00:53:15;17.60;95.50
612;DHT22;293;53.888;11.464;2022-07-23T00:55:42;17.60;95.80
612;DHT22;293;53.888;11.464;2022-07-23T00:58:09;17.60;95.70
612;DHT22;293;53.888;11.464;2022-07-23T01:00:36;17.60;95.60
612;DHT22;293;53.888;11.464;2022-07-23T01:03:03;17.50;95.60
612;DHT22;293;53.888;11.464;2022-07-23T01:05:29;17.50;95.60
612;DHT22;293;53.888;11.464;2022-07-23T01:07:58;17.50;96.00
612;DHT22;293;53.888;11.464;2022-07-23T01:10:25;17.50;95.70
612;DHT22;293;53.888;11.464;2022-07-23T01:12:59;17.50;95.70
612;DHT22;293;53.888;11.464;2022-07-23T01:15:26;17.50;95.70
612;DHT22;293;53.888;11.464;2022-07-23T01:17:53;17.50;95.60
612;DHT22;293;53.888;11.464;2022-07-23T01:20:20;17.40;95.90
612;DHT22;293;53.888;11.464;2022-07-23T01:22:49;17.40;96.00
612;DHT22;293;53.888;11.464;2022-07-23T01:25:16;17.30;95.80
612;DHT22;293;53.888;11.464;2022-07-23T01:27:43;17.30;96.10
612;DHT22;293;53.888;11.464;2022-07-23T01:30:11;17.40;96.30
612;DHT22;293;53.888;11.464;2022-07-23T01:32:38;17.40;96.00
612;DHT22;293;53.888;11.464;2022-07-23T01:35:06;17.30;96.00
612;DHT22;293;53.888;11.464;2022-07-23T01:37:33;17.30;96.20
612;DHT22;293;53.888;11.464;2022-07-23T01:40:02;17.20;96.30
612;DHT22;293;53.888;11.464;2022-07-23T01:42:29;17.20;96.30
612;DHT22;293;53.888;11.464;2022-07-23T01:44:56;17.10;96.50
612;DHT22;293;53.888;11.464;2022-07-23T01:47:23;17.10;96.60
612;DHT22;293;53.888;11.464;2022-07-23T01:49:50;17.10;96.70
612;DHT22;293;53.888;11.464;2022-07-23T01:52:17;17.10;96.80
612;DHT22;293;53.888;11.464;2022-07-23T01:54:43;17.10;96.70
612;DHT22;293;53.888;11.464;2022-07-23T01:57:12;17.10;96.60
612;DHT22;293;53.888;11.464;2022-07-23T01:59:38;17.10;97.30
612;DHT22;293;53.888;11.464;2022-07-23T02:02:05;17.20;97.00
612;DHT22;293;53.888;11.464;2022-07-23T02:04:33;17.20;97.00
612;DHT22;293;53.888;11.464;2022-07-23T02:07:02;17.20;96.90
612;DHT22;293;53.888;11.464;2022-07-23T02:09:29;17.30;97.00
612;DHT22;293;53.888;11.464;2022-07-23T02:11:56;17.20;96.80
612;DHT22;293;53.888;11.464;2022-07-23T02:14:25;17.10;96.90
612;DHT22;293;53.888;11.464;2022-07-23T02:16:52;17.10;97.00
612;DHT22;293;53.888;11.464;2022-07-23T02:19:19;17.10;97.10
612;DHT22;293;53.888;11.464;2022-07-23T02:21:46;17.10;97.20
612;DHT22;293;53.888;11.464;2022-07-23T02:24:13;17.00;97.00
612;DHT22;293;53.888;11.464;2022-07-23T02:26:40;16.90;97.20
612;DHT22;293;53.888;11.464;2022-07-23T02:29:07;16.80;97.50
612;DHT22;293;53.888;11.464;2022-07-23T02:31:35;16.80;97.40
612;DHT22;293;53.888;11.464;2022-07-23T02:34:03;16.80;97.50
612;DHT22;293;53.888;11.464;2022-07-23T02:36:30;16.80;97.60
612;DHT22;293;53.888;11.464;2022-07-23T02:38:57;16.80;97.80
612;DHT22;293;53.888;11.464;2022-07-23T02:41:24;16.70;97.80
612;DHT22;293;53.888;11.464;2022-07-23T02:43:51;16.70;98.20
612;DHT22;293;53.888;11.464;2022-07-23T02:46:18;16.70;98.10
612;DHT22;293;53.888;11.464;2022-07-23T02:48:46;16.70;98.20
612;DHT22;293;53.888;11.464;2022-07-23T02:51:13;16.70;98.20
612;DHT22;293;53.888;11.464;2022-07-23T02:53:40;16.60;98.10
612;DHT22;293;53.888;11.464;2022-07-23T02:56:07;16.60;98.30
612;DHT22;293;53.888;11.464;2022-07-23T02:58:33;16.60;98.40
612;DHT22;293;53.888;11.464;2022-07-23T03:01:00;16.50;98.40
612;DHT22;293;53.888;11.464;2022-07-23T03:03:27;16.50;98.60
612;DHT22;293;53.888;11.464;2022-07-23T03:05:55;16.50;98.80
612;DHT22;293;53.888;11.464;2022-07-23T03:08:22;16.40;98.70
612;DHT22;293;53.888;11.464;2022-07-23T03:10:49;16.40;98.60
612;DHT22;293;53.888;11.464;2022-07-23T03:13:16;16.40;98.90
612;DHT22;293;53.888;11.464;2022-07-23T03:15:43;16.40;99.10
612;DHT22;293;53.888;11.464;2022-07-23T03:18:09;16.50;98.90
612;DHT22;293;53.888;11.464;2022-07-23T03:20:36;16.50;98.90
612;DHT22;293;53.888;11.464;2022-07-23T03:23:05;16.50;99.00
612;DHT22;293;53.888;11.464;2022-07-23T03:25:31;16.40;99.00
612;DHT22;293;53.888;11.464;2022-07-23T03:27:58;16.40;99.10
612;DHT22;293;53.888;11.464;2022-07-23T03:30:25;16.50;99.10
612;DHT22;293;53.888;11.464;2022-07-23T03:32:52;16.60;99.00
612;DHT22;293;53.888;11.464;2022-07-23T03:35:19;16.70;98.70
612;DHT22;293;53.888;11.464;2022-07-23T03:37:45;16.70;98.70
612;DHT22;293;53.888;11.464;2022-07-23T03:40:14;16.70;98.70
612;DHT22;293;53.888;11.464;2022-07-23T03:42:41;16.60;98.90
612;DHT22;293;53.888;11.464;2022-07-23T03:45:09;16.50;98.90
612;DHT22;293;53.888;11.464;2022-07-23T03:47:36;16.60;99.20
612;DHT22;293;53.888;11.464;2022-07-23T03:50:05;16.60;99.00
612;DHT22;293;53.888;11.464;2022-07-23T03:52:32;16.60;99.00
612;DHT22;293;53.888;11.464;2022-07-23T03:54:59;16.50;99.00
612;DHT22;293;53.888;11.464;2022-07-23T03:57:27;16.60;98.90
612;DHT22;293;53.888;11.464;2022-07-23T03:59:54;16.70;98.90
612;DHT22;293;53.888;11.464;2022-07-23T04:02:21;16.80;98.90
612;DHT22;293;53.888;11.464;2022-07-23T04:04:48;16.80;98.70
612;DHT22;293;53.888;11.464;2022-07-23T04:07:14;16.90;98.80
612;DHT22;293;53.888;11.464;2022-07-23T04:09:43;16.90;98.70
612;DHT22;293;53.888;11.464;2022-07-23T04:12:09;16.90;98.70
612;DHT22;293;53.888;11.464;2022-07-23T04:14:38;17.00;98.40
612;DHT22;293;53.888;11.464;2022-07-23T04:17:05;17.10;98.40
612;DHT22;293;53.888;11.464;2022-07-23T04:19:31;17.10;98.40
612;DHT22;293;53.888;11.464;2022-07-23T04:21:58;17.10;98.40
612;DHT22;293;53.888;11.464;2022-07-23T04:24:25;17.10;98.30
612;DHT22;293;53.888;11.464;2022-07-23T04:26:52;17.10;98.60
612;DHT22;293;53.888;11.464;2022-07-23T04:29:19;17.10;98.30
612;DHT22;293;53.888;11.464;2022-07-23T04:31:47;17.20;98.40
612;DHT22;293;53.888;11.464;2022-07-23T04:34:14;17.30;98.40
612;DHT22;293;53.888;11.464;2022-07-23T04:36:41;17.30;98.40
612;DHT22;293;53.888;11.464;2022-07-23T04:39:08;17.30;98.50
612;DHT22;293;53.888;11.464;2022-07-23T04:41:34;17.40;98.50
612;DHT22;293;53.888;11.464;2022-07-23T04:44:02;17.50;98.30
612;DHT22;293;53.888;11.464;2022-07-23T04:46:29;17.50;98.20
612;DHT22;293;53.888;11.464;2022-07-23T04:48:57;17.60;98.40
612;DHT22;293;53.888;11.464;2022-07-23T04:51:24;17.60;98.20
612;DHT22;293;53.888;11.464;2022-07-23T04:53:51;17.60;98.50
612;DHT22;293;53.888;11.464;2022-07-23T04:56:18;17.60;98.30
612;DHT22;293;53.888;11.464;2022-07-23T04:58:44;17.70;98.30
612;DHT22;293;53.888;11.464;2022-07-23T05:01:11;17.70;98.00
612;DHT22;293;53.888;11.464;2022-07-23T05:03:38;17.80;98.20
612;DHT22;293;53.888;11.464;2022-07-23T05:06:06;17.80;98.10
612;DHT22;293;53.888;11.464;2022-07-23T05:08:33;18.00;98.00
612;DHT22;293;53.888;11.464;2022-07-23T05:11:00;18.10;98.00
612;DHT22;293;53.888;11.464;2022-07-23T05:13:27;18.30;97.50
612;DHT22;293;53.888;11.464;2022-07-23T05:15:54;18.40;97.40
612;DHT22;293;53.888;11.464;2022-07-23T05:18:21;18.60;97.30
612;DHT22;293;53.888;11.464;2022-07-23T05:20:47;18.70;96.80
612;DHT22;293;53.888;11.464;2022-07-23T05:23:16;18.70;96.60
612;DHT22;293;53.888;11.464;2022-07-23T05:25:42;18.60;96.30
612;DHT22;293;53.888;11.464;2022-07-23T05:28:09;18.60;96.30
612;DHT22;293;53.888;11.464;2022-07-23T05:30:37;18.70;96.30
612;DHT22;293;53.888;11.464;2022-07-23T05:33:03;18.70;96.30
612;DHT22;293;53.888;11.464;2022-07-23T05:35:30;18.80;96.20
612;DHT22;293;53.888;11.464;2022-07-23T05:37:57;18.70;95.80
612;DHT22;293;53.888;11.464;2022-07-23T05:40:25;18.70;96.00
612;DHT22;293;53.888;11.464;2022-07-23T05:42:52;18.70;96.00
612;DHT22;293;53.888;11.464;2022-07-23T05:45:19;18.80;95.70
612;DHT22;293;53.888;11.464;2022-07-23T05:47:47;18.80;95.50
612;DHT22;293;53.888;11.464;2022-07-23T05:50:15;18.70;95.50
612;DHT22;293;53.888;11.464;2022-07-23T05:52:42;18.60;95.50
612;DHT22;293;53.888;11.464;2022-07-23T05:55:10;18.50;95.60
612;DHT22;293;53.888;11.464;2022-07-23T05:57:39;18.40;95.70
612;DHT22;293;53.888;11.464;2022-07-23T06:00:08;18.20;95.80
612;DHT22;293;53.888;11.464;2022-07-23T06:02:36;18.20;96.10
612;DHT22;293;53.888;11.464;2022-07-23T06:05:04;18.10;96.20
612;DHT22;293;53.888;11.464;2022-07-23T06:07:33;18.10;96.70
612;DHT22;293;53.888;11.464;2022-07-23T06:10:00;18.10;96.40
612;DHT22;293;53.888;11.464;2022-07-23T06:12:27;18.10;96.60
612;DHT22;293;53.888;11.464;2022-07-23T06:14:55;18.10;96.60
612;DHT22;293;53.888;11.464;2022-07-23T06:17:22;18.20;96.70
612;DHT22;293;53.888;11.464;2022-07-23T06:19:48;18.30;96.60
612;DHT22;293;53.888;11.464;2022-07-23T06:22:15;18.30;96.50
612;DHT22;293;53.888;11.464;2022-07-23T06:24:42;18.30;96.30
612;DHT22;293;53.888;11.464;2022-07-23T06:27:09;18.30;96.40
612;DHT22;293;53.888;11.464;2022-07-23T06:29:36;18.40;96.30
612;DHT22;293;53.888;11.464;2022-07-23T06:32:05;18.40;96.20
612;DHT22;293;53.888;11.464;2022-07-23T06:34:32;18.40;96.30
612;DHT22;293;53.888;11.464;2022-07-23T06:36:59;18.50;96.30
612;DHT22;293;53.888;11.464;2022-07-23T06:39:26;18.60;96.00
612;DHT22;293;53.888;11.464;2022-07-23T06:41:53;18.80;95.40
612;DHT22;293;53.888;11.464;2022-07-23T06:44:21;18.90;95.00
612;DHT22;293;53.888;11.464;2022-07-23T06:46:47;19.10;94.70
612;DHT22;293;53.888;11.464;2022-07-23T06:49:15;19.20;94.50
612;DHT22;293;53.888;11.464;2022-07-23T06:51:42;19.20;94.40
612;DHT22;293;53.888;11.464;2022-07-23T06:54:09;19.20;94.20
612;DHT22;293;53.888;11.464;2022-07-23T06:56:36;19.10;94.30
612;DHT22;293;53.888;11.464;2022-07-23T06:59:03;19.00;94.60
612;DHT22;293;53.888;11.464;2022-07-23T07:01:30;19.00;95.00
612;DHT22;293;53.888;11.464;2022-07-23T07:03:57;18.90;95.70
612;DHT22;293;53.888;11.464;2022-07-23T07:06:25;19.00;96.20
612;DHT22;293;53.888;11.464;2022-07-23T07:08:52;19.20;96.90
612;DHT22;293;53.888;11.464;2022-07-23T07:11:19;19.20;96.20
612;DHT22;293;53.888;11.464;2022-07-23T07:13:46;19.20;95.80
612;DHT22;293;53.888;11.464;2022-07-23T07:16:13;19.10;95.80
612;DHT22;293;53.888;11.464;2022-07-23T07:18:39;19.00;95.60
612;DHT22;293;53.888;11.464;2022-07-23T07:21:06;18.90;95.40
612;DHT22;293;53.888;11.464;2022-07-23T07:23:34;18.90;95.50
612;DHT22;293;53.888;11.464;2022-07-23T07:26:01;18.90;95.50
612;DHT22;293;53.888;11.464;2022-07-23T07:28:28;18.90;95.30
612;DHT22;293;53.888;11.464;2022-07-23T07:30:55;19.10;95.10
612;DHT22;293;53.888;11.464;2022-07-23T07:33:22;19.20;94.30
612;DHT22;293;53.888;11.464;2022-07-23T07:35:49;19.30;93.90
612;DHT22;293;53.888;11.464;2022-07-23T07:38:16;19.60;93.80
612;DHT22;293;53.888;11.464;2022-07-23T07:40:44;20.00;93.30
612;DHT22;293;53.888;11.464;2022-07-23T07:43:11;20.50;92.80
612;DHT22;293;53.888;11.464;2022-07-23T07:45:38;20.80;92.30
612;DHT22;293;53.888;11.464;2022-07-23T07:48:05;21.20;92.10
612;DHT22;293;53.888;11.464;2022-07-23T07:50:32;21.50;92.10
612;DHT22;293;53.888;11.464;2022-07-23T07:52:58;21.50;91.60
612;DHT22;293;53.888;11.464;2022-07-23T07:55:25;21.50;91.50
612;DHT22;293;53.888;11.464;2022-07-23T07:57:55;21.80;91.40
612;DHT22;293;53.888;11.464;2022-07-23T08:00:22;21.90;90.50
612;DHT22;293;53.888;11.464;2022-07-23T08:02:51;21.90;89.70
612;DHT22;293;53.888;11.464;2022-07-23T08:05:20;22.00;89.10
612;DHT22;293;53.888;11.464;2022-07-23T08:07:47;21.90;88.70
612;DHT22;293;53.888;11.464;2022-07-23T08:10:15;22.00;89.10
612;DHT22;293;53.888;11.464;2022-07-23T08:12:43;22.30;87.70
612;DHT22;293;53.888;11.464;2022-07-23T08:15:13;22.40;86.30
612;DHT22;293;53.888;11.464;2022-07-23T08:17:40;22.40;85.50
612;DHT22;293;53.888;11.464;2022-07-23T08:20:08;22.50;85.10
612;DHT22;293;53.888;11.464;2022-07-23T08:22:47;22.60;84.00
612;DHT22;293;53.888;11.464;2022-07-23T08:25:14;22.60;82.30
612;DHT22;293;53.888;11.464;2022-07-23T08:27:42;22.50;82.30
612;DHT22;293;53.888;11.464;2022-07-23T08:30:09;22.20;82.20
612;DHT22;293;53.888;11.464;2022-07-23T08:32:54;21.90;83.10
612;DHT22;293;53.888;11.464;2022-07-23T08:35:28;21.40;84.20
612;DHT22;293;53.888;11.464;2022-07-23T08:37:56;21.10;86.00
612;DHT22;293;53.888;11.464;2022-07-23T08:40:26;20.80;86.90
612;DHT22;293;53.888;11.464;2022-07-23T08:42:53;20.50;88.00
612;DHT22;293;53.888;11.464;2022-07-23T08:45:23;20.40;89.20
612;DHT22;293;53.888;11.464;2022-07-23T08:47:54;20.60;89.00
612;DHT22;293;53.888;11.464;2022-07-23T08:50:21;21.00;89.50
612;DHT22;293;53.888;11.464;2022-07-23T08:52:49;21.30;88.80
612;DHT22;293;53.888;11.464;2022-07-23T08:55:17;21.40;86.40
612;DHT22;293;53.888;11.464;2022-07-23T08:57:44;21.50;86.50
612;DHT22;293;53.888;11.464;2022-07-23T09:00:13;21.50;85.40
612;DHT22;293;53.888;11.464;2022-07-23T09:02:41;21.40;85.80
612;DHT22;293;53.888;11.464;2022-07-23T09:05:11;21.40;85.50
612;DHT22;293;53.888;11.464;2022-07-23T09:08:05;21.30;84.90
612;DHT22;293;53.888;11.464;2022-07-23T09:10:46;21.30;86.40
612;DHT22;293;53.888;11.464;2022-07-23T09:13:25;21.40;86.10
612;DHT22;293;53.888;11.464;2022-07-23T09:15:53;21.60;87.00
612;DHT22;293;53.888;11.464;2022-07-23T09:18:32;21.90;86.30
612;DHT22;293;53.888;11.464;2022-07-23T09:21:12;22.30;85.90
612;DHT22;293;53.888;11.464;2022-07-23T09:23:41;22.70;84.50
612;DHT22;293;53.888;11.464;2022-07-23T09:26:18;22.90;82.30
612;DHT22;293;53.888;11.464;2022-07-23T09:28:53;22.80;81.50
612;DHT22;293;53.888;11.464;2022-07-23T09:31:20;22.90;81.30
612;DHT22;293;53.888;11.464;2022-07-23T09:33:47;22.90;80.90
612;DHT22;293;53.888;11.464;2022-07-23T09:36:27;22.90;80.60
612;DHT22;293;53.888;11.464;2022-07-23T09:38:54;22.70;80.80
612;DHT22;293;53.888;11.464;2022-07-23T09:41:21;22.60;80.80
612;DHT22;293;53.888;11.464;2022-07-23T09:43:55;22.70;81.40
612;DHT22;293;53.888;11.464;2022-07-23T09:46:23;22.90;81.30
612;DHT22;293;53.888;11.464;2022-07-23T09:48:50;23.10;80.70
612;DHT22;293;53.888;11.464;2022-07-23T09:51:19;23.10;80.10
612;DHT22;293;53.888;11.464;2022-07-23T09:53:50;22.90;79.30
612;DHT22;293;53.888;11.464;2022-07-23T09:56:19;22.70;80.60
612;DHT22;293;53.888;11.464;2022-07-23T09:58:50;22.50;80.80
612;DHT22;293;53.888;11.464;2022-07-23T10:01:17;22.20;79.80
612;DHT22;293;53.888;11.464;2022-07-23T10:03:45;22.00;81.10
612;DHT22;293;53.888;11.464;2022-07-23T10:06:13;21.80;81.10
612;DHT22;293;53.888;11.464;2022-07-23T10:08:42;21.70;81.80
612;DHT22;293;53.888;11.464;2022-07-23T10:11:11;21.70;83.00
612;DHT22;293;53.888;11.464;2022-07-23T10:13:40;21.90;83.70
612;DHT22;293;53.888;11.464;2022-07-23T10:16:20;22.00;81.20
612;DHT22;293;53.888;11.464;2022-07-23T10:18:48;22.10;80.70
612;DHT22;293;53.888;11.464;2022-07-23T10:21:20;22.10;79.90
612;DHT22;293;53.888;11.464;2022-07-23T10:24:09;22.20;80.80
612;DHT22;293;53.888;11.464;2022-07-23T10:26:41;22.10;80.50
612;DHT22;293;53.888;11.464;2022-07-23T10:29:17;22.10;80.90
612;DHT22;293;53.888;11.464;2022-07-23T10:31:52;22.10;81.30
612;DHT22;293;53.888;11.464;2022-07-23T10:34:27;22.10;81.30
612;DHT22;293;53.888;11.464;2022-07-23T10:36:59;22.20;80.70
612;DHT22;293;53.888;11.464;2022-07-23T10:39:29;22.20;80.00
612;DHT22;293;53.888;11.464;2022-07-23T10:42:08;22.40;79.50
612;DHT22;293;53.888;11.464;2022-07-23T10:44:39;22.30;79.00
612;DHT22;293;53.888;11.464;2022-07-23T10:47:08;22.40;78.90
612;DHT22;293;53.888;11.464;2022-07-23T10:49:49;22.60;79.30
612;DHT22;293;53.888;11.464;2022-07-23T10:52:24;22.80;79.50
612;DHT22;293;53.888;11.464;2022-07-23T10:54:54;23.00;79.10
612;DHT22;293;53.888;11.464;2022-07-23T10:57:24;23.10;78.30
612;DHT22;293;53.888;11.464;2022-07-23T11:00:16;23.20;79.50
612;DHT22;293;53.888;11.464;2022-07-23T11:02:45;23.30;78.40
612;DHT22;293;53.888;11.464;2022-07-23T11:05:14;23.40;77.80
612;DHT22;293;53.888;11.464;2022-07-23T11:08:16;23.60;77.40
612;DHT22;293;53.888;11.464;2022-07-23T11:10:46;23.80;77.20
612;DHT22;293;53.888;11.464;2022-07-23T11:16:26;23.60;76.20
612;DHT22;293;53.888;11.464;2022-07-23T11:19:06;23.30;76.60
612;DHT22;293;53.888;11.464;2022-07-23T11:21:58;22.70;77.30
612;DHT22;293;53.888;11.464;2022-07-23T11:24:25;22.30;77.40
612;DHT22;293;53.888;11.464;2022-07-23T11:26:59;22.10;78.40
612;DHT22;293;53.888;11.464;2022-07-23T11:29:47;22.00;78.90
612;DHT22;293;53.888;11.464;2022-07-23T11:32:32;22.10;79.20
612;DHT22;293;53.888;11.464;2022-07-23T11:35:01;22.20;78.20
612;DHT22;293;53.888;11.464;2022-07-23T11:37:35;22.30;76.70
612;DHT22;293;53.888;11.464;2022-07-23T11:40:06;22.30;76.50
612;DHT22;293;53.888;11.464;2022-07-23T11:42:36;22.40;75.80
612;DHT22;293;53.888;11.464;2022-07-23T11:45:04;22.50;75.30
612;DHT22;293;53.888;11.464;2022-07-23T11:47:31;22.60;76.10
612;DHT22;293;53.888;11.464;2022-07-23T11:50:00;22.80;75.00
612;DHT22;293;53.888;11.464;2022-07-23T11:52:28;23.00;75.60
612;DHT22;293;53.888;11.464;2022-07-23T11:54:57;23.10;74.60
612;DHT22;293;53.888;11.464;2022-07-23T11:57:25;23.30;74.50
612;DHT22;293;53.888;11.464;2022-07-23T11:59:56;23.30;74.70
612;DHT22;293;53.888;11.464;2022-07-23T12:02:23;23.40;74.80
612;DHT22;293;53.888;11.464;2022-07-23T12:04:53;23.40;73.90
612;DHT22;293;53.888;11.464;2022-07-23T12:07:27;23.30;73.80
612;DHT22;293;53.888;11.464;2022-07-23T12:09:56;23.10;74.30
612;DHT22;293;53.888;11.464;2022-07-23T12:12:23;23.00;74.50
612;DHT22;293;53.888;11.464;2022-07-23T12:14:51;22.80;74.40
612;DHT22;293;53.888;11.464;2022-07-23T12:17:21;22.50;74.60
612;DHT22;293;53.888;11.464;2022-07-23T12:19:48;22.40;75.80
612;DHT22;293;53.888;11.464;2022-07-23T12:22:15;22.40;76.60
612;DHT22;293;53.888;11.464;2022-07-23T12:24:59;22.40;77.40
612;DHT22;293;53.888;11.464;2022-07-23T12:27:26;22.30;77.60
612;DHT22;293;53.888;11.464;2022-07-23T12:29:53;22.20;77.60
612;DHT22;293;53.888;11.464;2022-07-23T12:32:23;22.10;78.20
612;DHT22;293;53.888;11.464;2022-07-23T12:35:01;22.20;78.50
612;DHT22;293;53.888;11.464;2022-07-23T12:37:33;22.10;78.60
612;DHT22;293;53.888;11.464;2022-07-23T12:40:22;22.20;78.90
612;DHT22;293;53.888;11.464;2022-07-23T12:42:50;22.40;79.00
612;DHT22;293;53.888;11.464;2022-07-23T12:45:19;22.60;78.20
612;DHT22;293;53.888;11.464;2022-07-23T12:47:56;22.80;78.00
612;DHT22;293;53.888;11.464;2022-07-23T12:50:38;23.00;77.30
612;DHT22;293;53.888;11.464;2022-07-23T12:53:07;23.10;77.20
612;DHT22;293;53.888;11.464;2022-07-23T12:55:35;23.20;76.40
612;DHT22;293;53.888;11.464;2022-07-23T12:58:11;23.30;75.60
612;DHT22;293;53.888;11.464;2022-07-23T13:01:05;23.40;75.90
612;DHT22;293;53.888;11.464;2022-07-23T13:03:36;23.50;75.30
612;DHT22;293;53.888;11.464;2022-07-23T13:06:05;23.50;75.50
612;DHT22;293;53.888;11.464;2022-07-23T13:08:34;23.50;75.80
612;DHT22;293;53.888;11.464;2022-07-23T13:11:02;23.40;75.60
612;DHT22;293;53.888;11.464;2022-07-23T13:13:31;23.50;75.80
612;DHT22;293;53.888;11.464;2022-07-23T13:15:59;23.50;75.80
612;DHT22;293;53.888;11.464;2022-07-23T13:18:27;23.30;75.80
612;DHT22;293;53.888;11.464;2022-07-23T13:20:56;23.00;75.90
612;DHT22;293;53.888;11.464;2022-07-23T13:23:23;22.70;77.10
612;DHT22;293;53.888;11.464;2022-07-23T13:25:50;22.50;77.80
612;DHT22;293;53.888;11.464;2022-07-23T13:28:18;22.20;78.60
612;DHT22;293;53.888;11.464;2022-07-23T13:30:45;22.00;79.50
612;DHT22;293;53.888;11.464;2022-07-23T13:33:15;22.00;80.10
612;DHT22;293;53.888;11.464;2022-07-23T13:35:42;21.90;80.30
612;DHT22;293;53.888;11.464;2022-07-23T13:38:11;22.00;81.00
612;DHT22;293;53.888;11.464;2022-07-23T13:40:41;22.00;79.30
612;DHT22;293;53.888;11.464;2022-07-23T13:43:09;22.10;79.80
612;DHT22;293;53.888;11.464;2022-07-23T13:45:36;22.30;78.80
612;DHT22;293;53.888;11.464;2022-07-23T13:48:05;22.50;78.80
612;DHT22;293;53.888;11.464;2022-07-23T13:50:32;22.60;77.00
612;DHT22;293;53.888;11.464;2022-07-23T13:53:01;22.70;76.30
612;DHT22;293;53.888;11.464;2022-07-23T13:55:29;22.80;76.40
612;DHT22;293;53.888;11.464;2022-07-23T13:57:56;22.90;76.80
612;DHT22;293;53.888;11.464;2022-07-23T14:00:23;23.00;76.70
612;DHT22;293;53.888;11.464;2022-07-23T14:02:50;23.20;76.90
612;DHT22;293;53.888;11.464;2022-07-23T14:05:18;23.20;75.50
612;DHT22;293;53.888;11.464;2022-07-23T14:07:45;23.30;75.80
612;DHT22;293;53.888;11.464;2022-07-23T14:10:16;23.30;76.10
612;DHT22;293;53.888;11.464;2022-07-23T14:12:45;23.20;76.10
612;DHT22;293;53.888;11.464;2022-07-23T14:15:12;22.90;77.40
612;DHT22;293;53.888;11.464;2022-07-23T14:17:40;22.70;78.20
612;DHT22;293;53.888;11.464;2022-07-23T14:20:09;22.50;78.80
612;DHT22;293;53.888;11.464;2022-07-23T14:22:36;22.30;79.00
612;DHT22;293;53.888;11.464;2022-07-23T14:25:05;22.30;78.30
612;DHT22;293;53.888;11.464;2022-07-23T14:27:33;22.40;78.10
612;DHT22;293;53.888;11.464;2022-07-23T14:30:01;22.50;78.50
612;DHT22;293;53.888;11.464;2022-07-23T14:32:28;22.50;78.00
612;DHT22;293;53.888;11.464;2022-07-23T14:34:55;22.60;78.10
612;DHT22;293;53.888;11.464;2022-07-23T14:37:22;22.80;78.00
612;DHT22;293;53.888;11.464;2022-07-23T14:39:50;22.90;77.30
612;DHT22;293;53.888;11.464;2022-07-23T14:42:18;22.80;74.80
612;DHT22;293;53.888;11.464;2022-07-23T14:44:45;22.80;75.10
612;DHT22;293;53.888;11.464;2022-07-23T14:47:13;22.80;75.20
612;DHT22;293;53.888;11.464;2022-07-23T14:49:40;22.90;75.80
612;DHT22;293;53.888;11.464;2022-07-23T14:52:07;22.90;75.30
612;DHT22;293;53.888;11.464;2022-07-23T14:54:34;22.80;76.00
612;DHT22;293;53.888;11.464;2022-07-23T14:57:01;22.60;76.40
612;DHT22;293;53.888;11.464;2022-07-23T14:59:29;22.50;77.40
612;DHT22;293;53.888;11.464;2022-07-23T15:01:57;22.40;78.30
612;DHT22;293;53.888;11.464;2022-07-23T15:04:26;22.30;78.40
612;DHT22;293;53.888;11.464;2022-07-23T15:06:53;22.30;78.20
612;DHT22;293;53.888;11.464;2022-07-23T15:09:19;22.20;78.20
612;DHT22;293;53.888;11.464;2022-07-23T15:11:46;22.30;78.70
612;DHT22;293;53.888;11.464;2022-07-23T15:14:13;22.30;78.00
612;DHT22;293;53.888;11.464;2022-07-23T15:16:40;22.30;78.40
612;DHT22;293;53.888;11.464;2022-07-23T15:19:07;22.30;78.50
612;DHT22;293;53.888;11.464;2022-07-23T15:21:36;22.50;78.60
612;DHT22;293;53.888;11.464;2022-07-23T15:24:03;22.50;77.70
612;DHT22;293;53.888;11.464;2022-07-23T15:26:30;22.60;78.10
612;DHT22;293;53.888;11.464;2022-07-23T15:28:57;22.70;77.90
612;DHT22;293;53.888;11.464;2022-07-23T15:31:25;22.80;77.80
612;DHT22;293;53.888;11.464;2022-07-23T15:33:52;22.90;76.70
612;DHT22;293;53.888;11.464;2022-07-23T15:36:20;23.00;76.50
612;DHT22;293;53.888;11.464;2022-07-23T15:38:48;22.90;77.10
612;DHT22;293;53.888;11.464;2022-07-23T15:41:15;22.80;77.00
612;DHT22;293;53.888;11.464;2022-07-23T15:43:42;22.70;76.90
612;DHT22;293;53.888;11.464;2022-07-23T15:46:09;22.40;77.10
612;DHT22;293;53.888;11.464;2022-07-23T15:48:36;22.20;77.40
612;DHT22;293;53.888;11.464;2022-07-23T15:51:05;21.90;78.00
612;DHT22;293;53.888;11.464;2022-07-23T15:53:32;21.80;79.30
612;DHT22;293;53.888;11.464;2022-07-23T15:56:00;21.70;79.60
612;DHT22;293;53.888;11.464;2022-07-23T15:58:28;21.60;79.70
612;DHT22;293;53.888;11.464;2022-07-23T16:00:55;21.60;80.50
612;DHT22;293;53.888;11.464;2022-07-23T16:03:23;21.50;80.60
612;DHT22;293;53.888;11.464;2022-07-23T16:05:49;21.40;80.80
612;DHT22;293;53.888;11.464;2022-07-23T16:08:16;21.30;81.10
612;DHT22;293;53.888;11.464;2022-07-23T16:10:43;21.10;82.00
612;DHT22;293;53.888;11.464;2022-07-23T16:13:12;21.00;82.10
612;DHT22;293;53.888;11.464;2022-07-23T16:15:40;21.00;82.50
612;DHT22;293;53.888;11.464;2022-07-23T16:18:08;20.90;82.80
612;DHT22;293;53.888;11.464;2022-07-23T16:20:36;20.90;83.10
612;DHT22;293;53.888;11.464;2022-07-23T16:23:04;20.80;83.10
612;DHT22;293;53.888;11.464;2022-07-23T16:25:33;20.80;83.60
612;DHT22;293;53.888;11.464;2022-07-23T16:28:00;20.80;84.00
612;DHT22;293;53.888;11.464;2022-07-23T16:30:28;20.70;84.10